Overview Statistics Trail Chart Weather Telemetry Raw packets
 

This is the latest recevied weather packets stored in our database for station/object W7BTL-13. If no packets are shown the sender has not sent any weather packets the latest 10 day(s).

<< 7 8 9 10 11 12 13 >>
Time Temp. Humidity Pressure Rain* Wind** Luminosity Snow
1788544801 26.11° C 54% 1013.2 hPa - - - -
1788544546 26.11° C 54% 1013.2 hPa - - - -
1788544502 26.11° C 54% 1013.2 hPa - - - -
1788544262 26.11° C 54% 1013.2 hPa - - - -
1788544202 26.11° C 54% 1013.2 hPa - - - -
1788543902 26.11° C 55% 1013.2 hPa - - - -
1788543601 26.67° C 53% 1013.2 hPa - - - -
1788543302 26.11° C 54% 1013.2 hPa - - - -
1788543002 25.56° C 54% 1013.2 hPa - - - -
1788542701 25° C 57% 1013.2 hPa - - - -
1788542406 25° C 59% 1013.2 hPa - - - -
1788542101 25.56° C 56% 1013.2 hPa - - - -
1788541802 25.56° C 58% 1013.2 hPa - - - -
1788541501 25° C 60% 1013.2 hPa - - - -
1788541202 24.44° C 60% 1013.2 hPa - - - -
1788540901 24.44° C 60% 1013.2 hPa - - - -
1788540613 24.44° C 61% 1013.2 hPa - - - -
1788540604 24.44° C 61% 1013.2 hPa - - - -
1788540302 23.33° C 64% 1013.2 hPa - - - -
1788540004 23.33° C 63% 1013.2 hPa - - - -
1788539703 23.33° C 66% 1013.2 hPa - - - -
1788539401 23.89° C 63% 1013.2 hPa - - - -
1788539104 23.89° C 66% 1013.2 hPa - - - -
1788539102 23.89° C 66% 1013.2 hPa - - - -
1788538802 23.89° C 64% 1013.2 hPa - - - -

* Rain since midnight (hover to see other rain measurements)
** Current wind speed in m/s (hover to see current wind gust speed)